Airfield :
LOGIN :

Register | Disclaimer

   EN    FR    IT 

 










Legend :    VFR   Marginal VFR   IFR   Intensive IFR   Very Intensive IFR
Visi :
Ceiling :
>= 8 km
>= 3000ft
5 to 8 km
1000 to 3000 ft
1500m to 5 km
500 to 1000 ft
800 to 1500m
200 to 500 ft
< 800m
< 200 ft
Symbols :   Thunderstorms  Fog  Heavy snow  Heavy precipitations  Wind > 20 kt
SIGMETs :     Misc.  Thunderstorms  Icing  Turbulence  Mountain Waves  Volcanic Ashes







- Airport Elevation : 433 ft
- IATA code : CCF
- Download approach charts


LFMK - Carcassonne

CURRENT METAR :
  • 181530Z AUTO 29010KT CAVOK 12/06 Q1020 NOSIG

EXPIRED METARs :
  • 181500Z AUTO 30010KT CAVOK 13/06 Q1020 NOSIG
  • 181430Z AUTO 30011KT 9999 FEW031 13/06 Q1021 NOSIG
  • 181400Z AUTO 30011KT 9999 FEW030 13/06 Q1021 NOSIG
  • 181330Z AUTO 29012KT 9999 FEW031 13/06 Q1021 NOSIG
  • 181300Z AUTO 30013KT 9999 FEW031 13/06 Q1021 NOSIG

TAF TAF LFMK
Valid from the 18 at 15:00 until the 19 at 15:00 UTC


181400Z 1815/1915 29010KT 9999 BKN033
BECMG 1902/1904 BKN013 OVC030
TEMPO 1904/1908 4000 -RA BR BKN009 OVC013
BECMG 1910/1913 29015G25KT BKN022 OVC040
TEMPO 1912/1915 -SHRA
No reported NOTAMs for that airfield.
1 SIGMET reported for the Bordeaux FIR (LFBB) :
 
Severe turbulence
LFBB SIGMET 4 VALID 181300/181700 LFPW
LFBB BORDEAUX FIR/UIR SEV TURB FCST NE OF LINE N4500 E00245 - N4715 E00130 SFC/FL080 STNR WKN=



MET'MAP, your aeronautical weather chart ! - Copyright ORBIFLY December 2007 - Disclaimer

ORBIFLY MET'MAP TEAM :

Programming & Development : Alexandra Zaïnal
Concept & Development : Baudouin d'Aumeries
Co-Development & Prog : Marc-Olivier Méhu
Technical & hardware support : Manuel Goepfert

Contact : metmap@orbifly.com




SOURCES & CREDITS :

   NOAA